sensor_id;sensor_type;location;lat;lon;timestamp;P1;durP1;ratioP1;P2;durP2;ratioP2
19869;SDS011;10097;50.862;4.696;2023-10-09T00:01:39;13.65;;;6.60;;
19869;SDS011;10097;50.862;4.696;2023-10-09T00:04:09;17.77;;;5.95;;
19869;SDS011;10097;50.862;4.696;2023-10-09T00:06:36;16.48;;;5.70;;
19869;SDS011;10097;50.862;4.696;2023-10-09T00:09:05;17.10;;;6.68;;
19869;SDS011;10097;50.862;4.696;2023-10-09T00:11:50;16.40;;;5.90;;
19869;SDS011;10097;50.862;4.696;2023-10-09T00:14:25;15.25;;;6.03;;
19869;SDS011;10097;50.862;4.696;2023-10-09T00:16:52;13.65;;;5.57;;
19869;SDS011;10097;50.862;4.696;2023-10-09T00:19:35;14.50;;;6.20;;
19869;SDS011;10097;50.862;4.696;2023-10-09T00:22:02;13.40;;;5.70;;
19869;SDS011;10097;50.862;4.696;2023-10-09T00:24:45;15.48;;;5.72;;
19869;SDS011;10097;50.862;4.696;2023-10-09T00:27:11;12.23;;;5.80;;
19869;SDS011;10097;50.862;4.696;2023-10-09T00:29:38;14.52;;;5.85;;
19869;SDS011;10097;50.862;4.696;2023-10-09T00:32:10;15.63;;;6.25;;
19869;SDS011;10097;50.862;4.696;2023-10-09T00:34:40;13.55;;;5.78;;
19869;SDS011;10097;50.862;4.696;2023-10-09T00:37:10;11.18;;;5.05;;
19869;SDS011;10097;50.862;4.696;2023-10-09T00:39:41;12.38;;;5.85;;
19869;SDS011;10097;50.862;4.696;2023-10-09T00:42:09;14.90;;;5.70;;
19869;SDS011;10097;50.862;4.696;2023-10-09T00:44:51;14.52;;;6.25;;
19869;SDS011;10097;50.862;4.696;2023-10-09T00:47:17;15.45;;;5.97;;
19869;SDS011;10097;50.862;4.696;2023-10-09T00:49:48;16.60;;;5.88;;
19869;SDS011;10097;50.862;4.696;2023-10-09T00:52:20;11.70;;;5.78;;
19869;SDS011;10097;50.862;4.696;2023-10-09T00:54:56;13.52;;;5.60;;
19869;SDS011;10097;50.862;4.696;2023-10-09T00:57:33;13.25;;;5.88;;
19869;SDS011;10097;50.862;4.696;2023-10-09T01:00:03;13.80;;;6.20;;
19869;SDS011;10097;50.862;4.696;2023-10-09T01:02:48;15.88;;;6.43;;
19869;SDS011;10097;50.862;4.696;2023-10-09T01:05:26;18.67;;;6.18;;
19869;SDS011;10097;50.862;4.696;2023-10-09T01:07:53;13.02;;;5.93;;
19869;SDS011;10097;50.862;4.696;2023-10-09T01:10:23;11.20;;;5.90;;
19869;SDS011;10097;50.862;4.696;2023-10-09T01:12:51;13.55;;;5.65;;
19869;SDS011;10097;50.862;4.696;2023-10-09T01:15:20;13.35;;;5.90;;
19869;SDS011;10097;50.862;4.696;2023-10-09T01:18:02;12.95;;;6.05;;
19869;SDS011;10097;50.862;4.696;2023-10-09T01:20:29;15.65;;;5.53;;
19869;SDS011;10097;50.862;4.696;2023-10-09T01:23:01;15.57;;;5.60;;
19869;SDS011;10097;50.862;4.696;2023-10-09T01:25:27;15.00;;;6.07;;
19869;SDS011;10097;50.862;4.696;2023-10-09T01:28:06;12.27;;;5.03;;
19869;SDS011;10097;50.862;4.696;2023-10-09T01:30:32;16.08;;;6.57;;
19869;SDS011;10097;50.862;4.696;2023-10-09T01:32:58;16.00;;;6.25;;
19869;SDS011;10097;50.862;4.696;2023-10-09T01:35:36;16.00;;;6.68;;
19869;SDS011;10097;50.862;4.696;2023-10-09T01:38:13;14.30;;;6.25;;
19869;SDS011;10097;50.862;4.696;2023-10-09T01:40:40;13.25;;;6.00;;
19869;SDS011;10097;50.862;4.696;2023-10-09T01:43:06;17.55;;;6.95;;
19869;SDS011;10097;50.862;4.696;2023-10-09T01:45:38;13.15;;;5.82;;
19869;SDS011;10097;50.862;4.696;2023-10-09T01:48:07;13.93;;;5.70;;
19869;SDS011;10097;50.862;4.696;2023-10-09T01:50:33;11.45;;;5.63;;
19869;SDS011;10097;50.862;4.696;2023-10-09T01:53:01;14.40;;;5.72;;
19869;SDS011;10097;50.862;4.696;2023-10-09T01:55:29;16.23;;;6.32;;
19869;SDS011;10097;50.862;4.696;2023-10-09T01:58:06;13.18;;;6.07;;
19869;SDS011;10097;50.862;4.696;2023-10-09T02:00:47;14.20;;;6.10;;
19869;SDS011;10097;50.862;4.696;2023-10-09T02:03:18;15.57;;;5.75;;
19869;SDS011;10097;50.862;4.696;2023-10-09T02:05:48;14.68;;;5.60;;
19869;SDS011;10097;50.862;4.696;2023-10-09T02:08:16;14.48;;;5.93;;
19869;SDS011;10097;50.862;4.696;2023-10-09T02:10:51;14.63;;;6.00;;
19869;SDS011;10097;50.862;4.696;2023-10-09T02:13:20;12.15;;;5.75;;
19869;SDS011;10097;50.862;4.696;2023-10-09T02:15:55;15.57;;;6.15;;
19869;SDS011;10097;50.862;4.696;2023-10-09T02:18:37;12.52;;;5.65;;
19869;SDS011;10097;50.862;4.696;2023-10-09T02:21:18;13.18;;;5.57;;
19869;SDS011;10097;50.862;4.696;2023-10-09T02:23:57;12.00;;;5.72;;
19869;SDS011;10097;50.862;4.696;2023-10-09T02:26:28;15.23;;;6.38;;
19869;SDS011;10097;50.862;4.696;2023-10-09T02:29:13;13.90;;;5.88;;
19869;SDS011;10097;50.862;4.696;2023-10-09T02:31:39;15.70;;;6.13;;
19869;SDS011;10097;50.862;4.696;2023-10-09T02:34:16;14.85;;;6.05;;
19869;SDS011;10097;50.862;4.696;2023-10-09T02:36:46;14.13;;;5.85;;
19869;SDS011;10097;50.862;4.696;2023-10-09T02:39:22;18.67;;;6.45;;
19869;SDS011;10097;50.862;4.696;2023-10-09T02:41:55;15.77;;;6.00;;
19869;SDS011;10097;50.862;4.696;2023-10-09T02:44:44;11.98;;;5.70;;
19869;SDS011;10097;50.862;4.696;2023-10-09T02:47:15;14.20;;;5.47;;
19869;SDS011;10097;50.862;4.696;2023-10-09T02:49:56;15.13;;;5.47;;
19869;SDS011;10097;50.862;4.696;2023-10-09T02:52:31;13.63;;;5.43;;
19869;SDS011;10097;50.862;4.696;2023-10-09T02:54:58;12.13;;;5.47;;
19869;SDS011;10097;50.862;4.696;2023-10-09T02:57:38;14.77;;;5.55;;
19869;SDS011;10097;50.862;4.696;2023-10-09T03:00:06;18.33;;;5.85;;
19869;SDS011;10097;50.862;4.696;2023-10-09T03:02:44;16.20;;;5.90;;
19869;SDS011;10097;50.862;4.696;2023-10-09T03:05:13;12.20;;;5.60;;
19869;SDS011;10097;50.862;4.696;2023-10-09T03:07:39;15.60;;;6.55;;
19869;SDS011;10097;50.862;4.696;2023-10-09T03:10:06;13.00;;;5.55;;
19869;SDS011;10097;50.862;4.696;2023-10-09T03:12:34;14.68;;;6.20;;
19869;SDS011;10097;50.862;4.696;2023-10-09T03:15:00;14.75;;;5.95;;
19869;SDS011;10097;50.862;4.696;2023-10-09T03:17:30;14.23;;;5.88;;
19869;SDS011;10097;50.862;4.696;2023-10-09T03:19:59;14.60;;;5.88;;
19869;SDS011;10097;50.862;4.696;2023-10-09T03:22:28;15.57;;;6.10;;
19869;SDS011;10097;50.862;4.696;2023-10-09T03:24:55;19.10;;;6.18;;
19869;SDS011;10097;50.862;4.696;2023-10-09T03:27:21;14.02;;;6.00;;
19869;SDS011;10097;50.862;4.696;2023-10-09T03:29:47;11.02;;;5.13;;
19869;SDS011;10097;50.862;4.696;2023-10-09T03:32:18;16.42;;;6.00;;
19869;SDS011;10097;50.862;4.696;2023-10-09T03:34:44;14.52;;;6.25;;
19869;SDS011;10097;50.862;4.696;2023-10-09T03:37:10;15.15;;;6.18;;
19869;SDS011;10097;50.862;4.696;2023-10-09T03:39:55;16.63;;;5.88;;
19869;SDS011;10097;50.862;4.696;2023-10-09T03:45:48;13.07;;;5.78;;
19869;SDS011;10097;50.862;4.696;2023-10-09T03:52:03;13.25;;;5.85;;
19869;SDS011;10097;50.862;4.696;2023-10-09T03:57:57;15.07;;;5.70;;
19869;SDS011;10097;50.862;4.696;2023-10-09T04:03:48;14.40;;;6.10;;
19869;SDS011;10097;50.862;4.696;2023-10-09T04:06:20;16.13;;;6.05;;
19869;SDS011;10097;50.862;4.696;2023-10-09T04:08:53;18.95;;;6.25;;
19869;SDS011;10097;50.862;4.696;2023-10-09T04:11:20;14.45;;;6.50;;
19869;SDS011;10097;50.862;4.696;2023-10-09T04:13:48;17.35;;;6.93;;
19869;SDS011;10097;50.862;4.696;2023-10-09T04:16:18;18.40;;;6.95;;
19869;SDS011;10097;50.862;4.696;2023-10-09T04:22:18;15.35;;;6.28;;
19869;SDS011;10097;50.862;4.696;2023-10-09T04:24:51;14.90;;;6.40;;
19869;SDS011;10097;50.862;4.696;2023-10-09T04:27:22;14.68;;;6.80;;
19869;SDS011;10097;50.862;4.696;2023-10-09T04:29:52;17.77;;;6.35;;
19869;SDS011;10097;50.862;4.696;2023-10-09T04:32:19;14.00;;;6.63;;
19869;SDS011;10097;50.862;4.696;2023-10-09T04:34:49;15.10;;;6.65;;
19869;SDS011;10097;50.862;4.696;2023-10-09T04:37:35;14.70;;;6.05;;
19869;SDS011;10097;50.862;4.696;2023-10-09T04:40:04;17.35;;;6.28;;
19869;SDS011;10097;50.862;4.696;2023-10-09T04:42:37;16.50;;;6.35;;
19869;SDS011;10097;50.862;4.696;2023-10-09T04:45:04;13.75;;;6.05;;
19869;SDS011;10097;50.862;4.696;2023-10-09T04:47:37;14.57;;;7.05;;
19869;SDS011;10097;50.862;4.696;2023-10-09T04:52:49;14.00;;;6.18;;
19869;SDS011;10097;50.862;4.696;2023-10-09T04:55:18;17.23;;;6.55;;
19869;SDS011;10097;50.862;4.696;2023-10-09T04:57:45;12.85;;;6.13;;
19869;SDS011;10097;50.862;4.696;2023-10-09T05:00:14;14.55;;;6.40;;
19869;SDS011;10097;50.862;4.696;2023-10-09T05:03:07;13.70;;;6.03;;
19869;SDS011;10097;50.862;4.696;2023-10-09T05:05:50;16.42;;;6.40;;
19869;SDS011;10097;50.862;4.696;2023-10-09T05:08:24;14.73;;;6.25;;
19869;SDS011;10097;50.862;4.696;2023-10-09T05:10:57;13.38;;;6.20;;
19869;SDS011;10097;50.862;4.696;2023-10-09T05:16:08;12.90;;;6.15;;
19869;SDS011;10097;50.862;4.696;2023-10-09T05:18:45;16.10;;;6.95;;
19869;SDS011;10097;50.862;4.696;2023-10-09T05:21:36;13.63;;;6.70;;
19869;SDS011;10097;50.862;4.696;2023-10-09T05:24:08;17.88;;;7.30;;
19869;SDS011;10097;50.862;4.696;2023-10-09T05:26:37;15.30;;;6.75;;
19869;SDS011;10097;50.862;4.696;2023-10-09T05:29:25;14.35;;;6.78;;
19869;SDS011;10097;50.862;4.696;2023-10-09T05:31:54;13.65;;;6.60;;
19869;SDS011;10097;50.862;4.696;2023-10-09T05:34:25;15.70;;;6.70;;
19869;SDS011;10097;50.862;4.696;2023-10-09T05:37:23;14.30;;;6.60;;
19869;SDS011;10097;50.862;4.696;2023-10-09T05:39:53;20.30;;;6.93;;
19869;SDS011;10097;50.862;4.696;2023-10-09T05:42:29;14.38;;;6.82;;
19869;SDS011;10097;50.862;4.696;2023-10-09T05:45:05;17.27;;;7.13;;
19869;SDS011;10097;50.862;4.696;2023-10-09T05:47:51;14.10;;;6.38;;
19869;SDS011;10097;50.862;4.696;2023-10-09T05:50:36;15.90;;;7.13;;
19869;SDS011;10097;50.862;4.696;2023-10-09T05:53:25;14.85;;;7.28;;
19869;SDS011;10097;50.862;4.696;2023-10-09T05:56:08;16.20;;;7.30;;
19869;SDS011;10097;50.862;4.696;2023-10-09T05:58:53;14.07;;;7.10;;
19869;SDS011;10097;50.862;4.696;2023-10-09T06:01:39;21.15;;;7.63;;
19869;SDS011;10097;50.862;4.696;2023-10-09T06:04:23;19.17;;;7.93;;
19869;SDS011;10097;50.862;4.696;2023-10-09T06:07:08;16.35;;;7.30;;
19869;SDS011;10097;50.862;4.696;2023-10-09T06:09:38;16.35;;;6.95;;
19869;SDS011;10097;50.862;4.696;2023-10-09T06:12:21;13.82;;;6.72;;
19869;SDS011;10097;50.862;4.696;2023-10-09T06:15:14;13.60;;;7.25;;
19869;SDS011;10097;50.862;4.696;2023-10-09T06:18:01;17.35;;;7.32;;
19869;SDS011;10097;50.862;4.696;2023-10-09T06:20:47;15.57;;;7.30;;
19869;SDS011;10097;50.862;4.696;2023-10-09T06:23:31;15.27;;;7.28;;
19869;SDS011;10097;50.862;4.696;2023-10-09T06:26:34;17.20;;;7.45;;
19869;SDS011;10097;50.862;4.696;2023-10-09T06:28:59;24.00;;;9.48;;
19869;SDS011;10097;50.862;4.696;2023-10-09T06:31:41;18.50;;;6.68;;
19869;SDS011;10097;50.862;4.696;2023-10-09T06:34:41;18.33;;;7.28;;
19869;SDS011;10097;50.862;4.696;2023-10-09T06:37:10;18.88;;;7.85;;
19869;SDS011;10097;50.862;4.696;2023-10-09T06:39:59;17.42;;;7.93;;
19869;SDS011;10097;50.862;4.696;2023-10-09T06:45:45;14.52;;;6.88;;
19869;SDS011;10097;50.862;4.696;2023-10-09T06:48:11;16.92;;;7.97;;
19869;SDS011;10097;50.862;4.696;2023-10-09T06:51:29;16.52;;;7.80;;
19869;SDS011;10097;50.862;4.696;2023-10-09T06:54:25;16.75;;;7.28;;
19869;SDS011;10097;50.862;4.696;2023-10-09T06:56:53;19.25;;;8.18;;
19869;SDS011;10097;50.862;4.696;2023-10-09T06:59:18;17.90;;;7.95;;
19869;SDS011;10097;50.862;4.696;2023-10-09T07:01:49;19.48;;;7.50;;
19869;SDS011;10097;50.862;4.696;2023-10-09T07:04:36;18.40;;;7.13;;
19869;SDS011;10097;50.862;4.696;2023-10-09T07:07:03;18.00;;;7.50;;
19869;SDS011;10097;50.862;4.696;2023-10-09T07:09:34;14.98;;;6.70;;
19869;SDS011;10097;50.862;4.696;2023-10-09T07:12:29;15.95;;;7.10;;
19869;SDS011;10097;50.862;4.696;2023-10-09T07:14:58;14.85;;;6.80;;
19869;SDS011;10097;50.862;4.696;2023-10-09T07:17:49;18.25;;;7.10;;
19869;SDS011;10097;50.862;4.696;2023-10-09T07:20:17;20.08;;;7.25;;
19869;SDS011;10097;50.862;4.696;2023-10-09T07:23:02;17.65;;;7.63;;
19869;SDS011;10097;50.862;4.696;2023-10-09T07:25:42;20.80;;;6.60;;
19869;SDS011;10097;50.862;4.696;2023-10-09T07:28:20;16.60;;;6.75;;
19869;SDS011;10097;50.862;4.696;2023-10-09T07:31:08;16.63;;;6.70;;
19869;SDS011;10097;50.862;4.696;2023-10-09T07:33:52;18.90;;;6.45;;
19869;SDS011;10097;50.862;4.696;2023-10-09T07:36:25;16.45;;;7.38;;
19869;SDS011;10097;50.862;4.696;2023-10-09T07:39:00;15.45;;;6.38;;
19869;SDS011;10097;50.862;4.696;2023-10-09T07:41:31;14.15;;;6.90;;
19869;SDS011;10097;50.862;4.696;2023-10-09T07:43:57;16.27;;;7.45;;
19869;SDS011;10097;50.862;4.696;2023-10-09T07:46:22;17.52;;;7.68;;
19869;SDS011;10097;50.862;4.696;2023-10-09T07:49:04;15.88;;;7.25;;
19869;SDS011;10097;50.862;4.696;2023-10-09T07:51:50;14.93;;;6.55;;
19869;SDS011;10097;50.862;4.696;2023-10-09T07:54:17;18.42;;;7.35;;
19869;SDS011;10097;50.862;4.696;2023-10-09T07:56:57;16.70;;;7.30;;
19869;SDS011;10097;50.862;4.696;2023-10-09T07:59:34;20.80;;;7.25;;
19869;SDS011;10097;50.862;4.696;2023-10-09T08:02:06;15.95;;;7.05;;
19869;SDS011;10097;50.862;4.696;2023-10-09T08:04:38;17.75;;;7.78;;
19869;SDS011;10097;50.862;4.696;2023-10-09T08:07:13;16.88;;;7.10;;
19869;SDS011;10097;50.862;4.696;2023-10-09T08:09:51;17.98;;;7.20;;
19869;SDS011;10097;50.862;4.696;2023-10-09T08:12:35;17.00;;;7.25;;
19869;SDS011;10097;50.862;4.696;2023-10-09T08:15:23;16.25;;;7.25;;
19869;SDS011;10097;50.862;4.696;2023-10-09T08:18:16;19.10;;;6.65;;
19869;SDS011;10097;50.862;4.696;2023-10-09T08:20:54;17.63;;;7.13;;
19869;SDS011;10097;50.862;4.696;2023-10-09T08:23:23;15.32;;;7.43;;
19869;SDS011;10097;50.862;4.696;2023-10-09T08:26:07;17.45;;;7.78;;
19869;SDS011;10097;50.862;4.696;2023-10-09T08:28:44;16.98;;;7.93;;
19869;SDS011;10097;50.862;4.696;2023-10-09T08:31:18;16.33;;;7.70;;
19869;SDS011;10097;50.862;4.696;2023-10-09T08:33:45;18.25;;;7.18;;
19869;SDS011;10097;50.862;4.696;2023-10-09T08:36:22;18.95;;;7.93;;
19869;SDS011;10097;50.862;4.696;2023-10-09T08:38:53;21.90;;;7.85;;
19869;SDS011;10097;50.862;4.696;2023-10-09T08:41:23;16.60;;;7.50;;
19869;SDS011;10097;50.862;4.696;2023-10-09T08:43:55;17.70;;;7.07;;
19869;SDS011;10097;50.862;4.696;2023-10-09T08:46:23;18.63;;;7.15;;
19869;SDS011;10097;50.862;4.696;2023-10-09T08:48:57;14.45;;;6.93;;
19869;SDS011;10097;50.862;4.696;2023-10-09T08:51:25;16.50;;;7.25;;
19869;SDS011;10097;50.862;4.696;2023-10-09T08:53:51;16.85;;;7.18;;
19869;SDS011;10097;50.862;4.696;2023-10-09T08:56:18;17.27;;;7.90;;
19869;SDS011;10097;50.862;4.696;2023-10-09T08:58:52;18.70;;;7.65;;
19869;SDS011;10097;50.862;4.696;2023-10-09T09:01:20;20.55;;;8.32;;
19869;SDS011;10097;50.862;4.696;2023-10-09T09:03:49;17.70;;;7.68;;
19869;SDS011;10097;50.862;4.696;2023-10-09T09:06:19;17.52;;;7.90;;
19869;SDS011;10097;50.862;4.696;2023-10-09T09:08:50;16.55;;;7.60;;
19869;SDS011;10097;50.862;4.696;2023-10-09T09:11:24;14.65;;;6.85;;
19869;SDS011;10097;50.862;4.696;2023-10-09T09:19:01;23.58;;;7.40;;
19869;SDS011;10097;50.862;4.696;2023-10-09T09:21:36;18.98;;;7.80;;
19869;SDS011;10097;50.862;4.696;2023-10-09T09:24:05;18.98;;;7.88;;
19869;SDS011;10097;50.862;4.696;2023-10-09T09:26:42;19.50;;;7.70;;
19869;SDS011;10097;50.862;4.696;2023-10-09T09:29:14;16.85;;;7.43;;
19869;SDS011;10097;50.862;4.696;2023-10-09T09:31:56;18.90;;;7.43;;
19869;SDS011;10097;50.862;4.696;2023-10-09T09:34:47;19.05;;;7.57;;
19869;SDS011;10097;50.862;4.696;2023-10-09T09:37:20;16.88;;;7.60;;
19869;SDS011;10097;50.862;4.696;2023-10-09T09:39:54;17.27;;;7.22;;
19869;SDS011;10097;50.862;4.696;2023-10-09T09:42:25;20.35;;;8.00;;
19869;SDS011;10097;50.862;4.696;2023-10-09T09:44:53;17.17;;;7.35;;
19869;SDS011;10097;50.862;4.696;2023-10-09T09:47:20;16.90;;;7.25;;
19869;SDS011;10097;50.862;4.696;2023-10-09T09:49:53;15.20;;;7.13;;
19869;SDS011;10097;50.862;4.696;2023-10-09T09:52:29;14.80;;;7.30;;
19869;SDS011;10097;50.862;4.696;2023-10-09T09:55:03;22.08;;;7.53;;
19869;SDS011;10097;50.862;4.696;2023-10-09T09:57:32;20.60;;;7.38;;
19869;SDS011;10097;50.862;4.696;2023-10-09T10:00:04;14.15;;;6.57;;
19869;SDS011;10097;50.862;4.696;2023-10-09T10:02:43;13.00;;;6.35;;
19869;SDS011;10097;50.862;4.696;2023-10-09T10:05:10;15.93;;;6.68;;
19869;SDS011;10097;50.862;4.696;2023-10-09T10:07:40;17.40;;;6.93;;
19869;SDS011;10097;50.862;4.696;2023-10-09T10:10:41;16.15;;;7.30;;
19869;SDS011;10097;50.862;4.696;2023-10-09T10:13:02;18.30;;;7.07;;
19869;SDS011;10097;50.862;4.696;2023-10-09T10:18:23;20.48;;;7.35;;
19869;SDS011;10097;50.862;4.696;2023-10-09T10:23:43;15.48;;;6.75;;
19869;SDS011;10097;50.862;4.696;2023-10-09T10:26:19;16.25;;;7.10;;
19869;SDS011;10097;50.862;4.696;2023-10-09T10:37:35;15.98;;;6.18;;
19869;SDS011;10097;50.862;4.696;2023-10-09T10:40:25;18.20;;;6.70;;
19869;SDS011;10097;50.862;4.696;2023-10-09T10:43:04;17.13;;;6.80;;
19869;SDS011;10097;50.862;4.696;2023-10-09T10:46:08;19.05;;;7.10;;
19869;SDS011;10097;50.862;4.696;2023-10-09T10:48:41;13.88;;;6.53;;
19869;SDS011;10097;50.862;4.696;2023-10-09T10:51:12;15.30;;;7.03;;
19869;SDS011;10097;50.862;4.696;2023-10-09T10:54:00;17.77;;;7.22;;
19869;SDS011;10097;50.862;4.696;2023-10-09T10:56:47;15.13;;;6.13;;
19869;SDS011;10097;50.862;4.696;2023-10-09T10:59:20;16.20;;;5.93;;
19869;SDS011;10097;50.862;4.696;2023-10-09T11:01:50;16.10;;;6.43;;
19869;SDS011;10097;50.862;4.696;2023-10-09T11:04:26;12.88;;;6.05;;
19869;SDS011;10097;50.862;4.696;2023-10-09T11:07:01;19.77;;;6.38;;
19869;SDS011;10097;50.862;4.696;2023-10-09T11:09:47;14.50;;;5.97;;
19869;SDS011;10097;50.862;4.696;2023-10-09T11:12:27;18.10;;;6.57;;
19869;SDS011;10097;50.862;4.696;2023-10-09T11:15:12;13.82;;;5.95;;
19869;SDS011;10097;50.862;4.696;2023-10-09T11:18:06;16.55;;;5.88;;
19869;SDS011;10097;50.862;4.696;2023-10-09T11:20:38;18.23;;;6.40;;
19869;SDS011;10097;50.862;4.696;2023-10-09T11:23:04;16.17;;;6.55;;
19869;SDS011;10097;50.862;4.696;2023-10-09T11:25:39;12.57;;;5.57;;
19869;SDS011;10097;50.862;4.696;2023-10-09T11:28:19;13.00;;;5.78;;
19869;SDS011;10097;50.862;4.696;2023-10-09T11:31:06;12.38;;;5.80;;
19869;SDS011;10097;50.862;4.696;2023-10-09T11:33:42;14.95;;;5.95;;
19869;SDS011;10097;50.862;4.696;2023-10-09T11:36:16;14.85;;;6.03;;
19869;SDS011;10097;50.862;4.696;2023-10-09T11:38:56;16.38;;;6.13;;
19869;SDS011;10097;50.862;4.696;2023-10-09T11:41:42;14.35;;;5.35;;
19869;SDS011;10097;50.862;4.696;2023-10-09T11:44:09;12.63;;;5.82;;
19869;SDS011;10097;50.862;4.696;2023-10-09T11:47:04;13.65;;;6.20;;
19869;SDS011;10097;50.862;4.696;2023-10-09T11:49:55;15.80;;;5.68;;
19869;SDS011;10097;50.862;4.696;2023-10-09T11:52:36;12.85;;;5.97;;
19869;SDS011;10097;50.862;4.696;2023-10-09T11:55:34;15.20;;;5.22;;
19869;SDS011;10097;50.862;4.696;2023-10-09T11:58:03;16.52;;;5.47;;
19869;SDS011;10097;50.862;4.696;2023-10-09T12:00:39;14.50;;;5.68;;
19869;SDS011;10097;50.862;4.696;2023-10-09T12:03:11;11.90;;;6.25;;
19869;SDS011;10097;50.862;4.696;2023-10-09T12:05:38;15.90;;;6.15;;
19869;SDS011;10097;50.862;4.696;2023-10-09T12:08:07;22.13;;;5.68;;
19869;SDS011;10097;50.862;4.696;2023-10-09T12:10:35;14.35;;;5.78;;
19869;SDS011;10097;50.862;4.696;2023-10-09T12:13:03;17.33;;;6.28;;
19869;SDS011;10097;50.862;4.696;2023-10-09T12:15:31;13.63;;;6.03;;
19869;SDS011;10097;50.862;4.696;2023-10-09T12:18:06;17.63;;;6.35;;
19869;SDS011;10097;50.862;4.696;2023-10-09T12:20:39;19.58;;;6.35;;
19869;SDS011;10097;50.862;4.696;2023-10-09T12:23:06;17.02;;;6.47;;
19869;SDS011;10097;50.862;4.696;2023-10-09T12:25:33;16.60;;;6.00;;
19869;SDS011;10097;50.862;4.696;2023-10-09T12:28:00;16.13;;;5.80;;
19869;SDS011;10097;50.862;4.696;2023-10-09T12:30:28;16.25;;;6.18;;
19869;SDS011;10097;50.862;4.696;2023-10-09T12:32:54;15.45;;;5.75;;
19869;SDS011;10097;50.862;4.696;2023-10-09T12:35:26;16.50;;;6.13;;
19869;SDS011;10097;50.862;4.696;2023-10-09T12:37:59;16.60;;;5.57;;
19869;SDS011;10097;50.862;4.696;2023-10-09T12:40:25;18.08;;;6.35;;
19869;SDS011;10097;50.862;4.696;2023-10-09T12:42:56;13.32;;;5.85;;
19869;SDS011;10097;50.862;4.696;2023-10-09T12:45:26;10.88;;;5.20;;
19869;SDS011;10097;50.862;4.696;2023-10-09T12:47:54;14.00;;;5.60;;
19869;SDS011;10097;50.862;4.696;2023-10-09T12:50:24;15.02;;;6.00;;
19869;SDS011;10097;50.862;4.696;2023-10-09T12:52:56;16.25;;;5.55;;
19869;SDS011;10097;50.862;4.696;2023-10-09T12:55:40;11.98;;;5.10;;
19869;SDS011;10097;50.862;4.696;2023-10-09T12:58:10;12.52;;;5.45;;
19869;SDS011;10097;50.862;4.696;2023-10-09T13:00:40;17.35;;;6.03;;
19869;SDS011;10097;50.862;4.696;2023-10-09T13:03:14;17.13;;;6.60;;
19869;SDS011;10097;50.862;4.696;2023-10-09T13:05:49;13.20;;;6.10;;
19869;SDS011;10097;50.862;4.696;2023-10-09T13:08:22;19.02;;;6.45;;
19869;SDS011;10097;50.862;4.696;2023-10-09T13:10:56;16.90;;;6.25;;
19869;SDS011;10097;50.862;4.696;2023-10-09T13:13:29;19.83;;;6.78;;
19869;SDS011;10097;50.862;4.696;2023-10-09T13:16:08;17.98;;;7.35;;
19869;SDS011;10097;50.862;4.696;2023-10-09T13:18:45;19.48;;;7.47;;
19869;SDS011;10097;50.862;4.696;2023-10-09T13:21:21;16.40;;;6.68;;
19869;SDS011;10097;50.862;4.696;2023-10-09T13:23:51;15.82;;;7.47;;
19869;SDS011;10097;50.862;4.696;2023-10-09T13:26:22;17.38;;;6.80;;
19869;SDS011;10097;50.862;4.696;2023-10-09T13:29:00;16.70;;;6.75;;
19869;SDS011;10097;50.862;4.696;2023-10-09T13:31:27;18.88;;;7.60;;
19869;SDS011;10097;50.862;4.696;2023-10-09T13:33:54;20.83;;;7.00;;
19869;SDS011;10097;50.862;4.696;2023-10-09T13:36:20;15.13;;;7.00;;
19869;SDS011;10097;50.862;4.696;2023-10-09T13:39:07;17.02;;;7.38;;
19869;SDS011;10097;50.862;4.696;2023-10-09T13:42:05;19.45;;;7.95;;
19869;SDS011;10097;50.862;4.696;2023-10-09T13:44:32;20.10;;;7.13;;
19869;SDS011;10097;50.862;4.696;2023-10-09T13:46:59;17.67;;;7.45;;
19869;SDS011;10097;50.862;4.696;2023-10-09T13:49:30;19.67;;;7.97;;
19869;SDS011;10097;50.862;4.696;2023-10-09T13:51:57;18.58;;;7.03;;
19869;SDS011;10097;50.862;4.696;2023-10-09T13:54:27;19.60;;;8.20;;
19869;SDS011;10097;50.862;4.696;2023-10-09T13:57:04;25.63;;;8.15;;
19869;SDS011;10097;50.862;4.696;2023-10-09T13:59:30;18.95;;;8.13;;
19869;SDS011;10097;50.862;4.696;2023-10-09T14:02:00;24.23;;;7.90;;
19869;SDS011;10097;50.862;4.696;2023-10-09T14:04:27;19.70;;;7.07;;
19869;SDS011;10097;50.862;4.696;2023-10-09T14:06:53;16.55;;;7.85;;
19869;SDS011;10097;50.862;4.696;2023-10-09T14:09:23;22.15;;;8.32;;
19869;SDS011;10097;50.862;4.696;2023-10-09T14:12:19;14.40;;;7.38;;
19869;SDS011;10097;50.862;4.696;2023-10-09T14:14:47;19.00;;;7.65;;
19869;SDS011;10097;50.862;4.696;2023-10-09T14:17:20;17.90;;;7.63;;
19869;SDS011;10097;50.862;4.696;2023-10-09T14:19:56;20.83;;;7.75;;
19869;SDS011;10097;50.862;4.696;2023-10-09T14:22:41;20.13;;;7.30;;
19869;SDS011;10097;50.862;4.696;2023-10-09T14:25:07;15.52;;;6.72;;
19869;SDS011;10097;50.862;4.696;2023-10-09T14:27:40;19.17;;;7.00;;
19869;SDS011;10097;50.862;4.696;2023-10-09T14:30:06;16.52;;;7.40;;
19869;SDS011;10097;50.862;4.696;2023-10-09T14:32:37;16.13;;;7.47;;
19869;SDS011;10097;50.862;4.696;2023-10-09T14:35:10;14.65;;;7.22;;
19869;SDS011;10097;50.862;4.696;2023-10-09T14:37:39;20.77;;;7.38;;
19869;SDS011;10097;50.862;4.696;2023-10-09T14:40:05;16.77;;;6.82;;
19869;SDS011;10097;50.862;4.696;2023-10-09T14:42:41;19.00;;;7.85;;
19869;SDS011;10097;50.862;4.696;2023-10-09T14:45:10;18.52;;;7.72;;
19869;SDS011;10097;50.862;4.696;2023-10-09T14:47:43;19.05;;;8.00;;
19869;SDS011;10097;50.862;4.696;2023-10-09T14:50:12;16.80;;;7.88;;
19869;SDS011;10097;50.862;4.696;2023-10-09T14:52:38;18.65;;;8.05;;
19869;SDS011;10097;50.862;4.696;2023-10-09T14:55:05;19.55;;;7.68;;
19869;SDS011;10097;50.862;4.696;2023-10-09T14:57:31;19.10;;;8.07;;
19869;SDS011;10097;50.862;4.696;2023-10-09T14:59:59;19.50;;;7.68;;
19869;SDS011;10097;50.862;4.696;2023-10-09T15:02:25;18.38;;;7.75;;
19869;SDS011;10097;50.862;4.696;2023-10-09T15:04:50;17.30;;;7.50;;
19869;SDS011;10097;50.862;4.696;2023-10-09T15:07:18;18.73;;;8.02;;
19869;SDS011;10097;50.862;4.696;2023-10-09T15:09:46;16.30;;;7.47;;
19869;SDS011;10097;50.862;4.696;2023-10-09T15:12:11;17.90;;;7.22;;
19869;SDS011;10097;50.862;4.696;2023-10-09T15:14:37;18.13;;;7.70;;
19869;SDS011;10097;50.862;4.696;2023-10-09T15:17:04;17.95;;;6.80;;
19869;SDS011;10097;50.862;4.696;2023-10-09T15:19:32;15.85;;;6.72;;
19869;SDS011;10097;50.862;4.696;2023-10-09T15:21:57;21.40;;;7.18;;
19869;SDS011;10097;50.862;4.696;2023-10-09T15:24:24;15.25;;;6.90;;
19869;SDS011;10097;50.862;4.696;2023-10-09T15:26:52;16.35;;;6.43;;
19869;SDS011;10097;50.862;4.696;2023-10-09T15:29:19;16.85;;;6.57;;
19869;SDS011;10097;50.862;4.696;2023-10-09T15:31:51;16.38;;;6.22;;
19869;SDS011;10097;50.862;4.696;2023-10-09T15:34:17;16.73;;;6.65;;
19869;SDS011;10097;50.862;4.696;2023-10-09T15:36:46;13.85;;;6.38;;
19869;SDS011;10097;50.862;4.696;2023-10-09T15:39:16;19.63;;;7.45;;
19869;SDS011;10097;50.862;4.696;2023-10-09T15:41:47;16.88;;;7.53;;
19869;SDS011;10097;50.862;4.696;2023-10-09T15:44:15;19.02;;;6.88;;
19869;SDS011;10097;50.862;4.696;2023-10-09T15:46:41;17.63;;;6.75;;
19869;SDS011;10097;50.862;4.696;2023-10-09T15:49:10;14.40;;;6.53;;
19869;SDS011;10097;50.862;4.696;2023-10-09T15:51:38;18.63;;;6.78;;
19869;SDS011;10097;50.862;4.696;2023-10-09T15:54:15;20.38;;;6.35;;
19869;SDS011;10097;50.862;4.696;2023-10-09T15:56:44;16.08;;;6.50;;
19869;SDS011;10097;50.862;4.696;2023-10-09T15:59:15;16.75;;;7.13;;